sensor_id;sensor_type;location;lat;lon;timestamp;pressure;altitude;pressure_sealevel;temperature;humidity
37170;BME280;23062;13.952;100.608;2022-12-20T00:03:53;1012.28;;;25.70;46.31
37170;BME280;23062;13.952;100.608;2022-12-20T00:08:19;1012.30;;;25.70;45.75
37170;BME280;23062;13.952;100.608;2022-12-20T00:12:48;1012.34;;;25.80;45.97
37170;BME280;23062;13.952;100.608;2022-12-20T00:17:16;1012.44;;;25.76;46.46
37170;BME280;23062;13.952;100.608;2022-12-20T00:21:41;1012.57;;;25.84;46.38
37170;BME280;23062;13.952;100.608;2022-12-20T00:26:14;1012.70;;;25.85;46.39
37170;BME280;23062;13.952;100.608;2022-12-20T00:30:40;1012.76;;;25.91;46.33
37170;BME280;23062;13.952;100.608;2022-12-20T00:35:10;1012.83;;;25.88;46.32
37170;BME280;23062;13.952;100.608;2022-12-20T00:39:35;1012.87;;;25.95;46.32
37170;BME280;23062;13.952;100.608;2022-12-20T00:44:02;1012.97;;;25.99;45.28
37170;BME280;23062;13.952;100.608;2022-12-20T00:48:29;1013.02;;;25.97;45.41
37170;BME280;23062;13.952;100.608;2022-12-20T00:52:55;1013.10;;;26.01;45.41
37170;BME280;23062;13.952;100.608;2022-12-20T00:57:20;1013.19;;;26.04;44.87
37170;BME280;23062;13.952;100.608;2022-12-20T01:01:49;1013.27;;;26.09;45.50
37170;BME280;23062;13.952;100.608;2022-12-20T01:06:14;1013.35;;;26.02;44.64
37170;BME280;23062;13.952;100.608;2022-12-20T01:10:42;1013.38;;;26.05;45.30
37170;BME280;23062;13.952;100.608;2022-12-20T01:15:08;1013.44;;;26.08;44.93
37170;BME280;23062;13.952;100.608;2022-12-20T01:19:40;1013.54;;;26.04;44.35
37170;BME280;23062;13.952;100.608;2022-12-20T01:24:06;1013.63;;;26.03;44.57
37170;BME280;23062;13.952;100.608;2022-12-20T01:28:33;1013.71;;;26.01;44.37
37170;BME280;23062;13.952;100.608;2022-12-20T01:32:58;1013.83;;;26.12;44.54
37170;BME280;23062;13.952;100.608;2022-12-20T01:37:24;1013.85;;;26.07;44.27
37170;BME280;23062;13.952;100.608;2022-12-20T01:41:51;1013.89;;;26.16;45.23
37170;BME280;23062;13.952;100.608;2022-12-20T01:46:17;1013.94;;;26.25;44.13
37170;BME280;23062;13.952;100.608;2022-12-20T01:50:43;1013.95;;;26.22;44.54
37170;BME280;23062;13.952;100.608;2022-12-20T01:55:19;1013.99;;;26.35;45.07
37170;BME280;23062;13.952;100.608;2022-12-20T01:59:38;1014.08;;;26.48;44.96
37170;BME280;23062;13.952;100.608;2022-12-20T02:04:05;1014.09;;;26.57;45.00
37170;BME280;23062;13.952;100.608;2022-12-20T02:08:30;1014.15;;;26.67;45.06
37170;BME280;23062;13.952;100.608;2022-12-20T02:13:02;1014.11;;;26.73;45.04
37170;BME280;23062;13.952;100.608;2022-12-20T02:22:40;1014.09;;;26.90;45.25
37170;BME280;23062;13.952;100.608;2022-12-20T02:27:29;1014.11;;;26.96;45.18
37170;BME280;23062;13.952;100.608;2022-12-20T02:32:03;1014.18;;;27.02;45.69
37170;BME280;23062;13.952;100.608;2022-12-20T02:36:28;1014.22;;;27.04;45.38
37170;BME280;23062;13.952;100.608;2022-12-20T02:41:23;1014.20;;;27.08;45.22
37170;BME280;23062;13.952;100.608;2022-12-20T02:45:47;1014.15;;;27.11;45.14
37170;BME280;23062;13.952;100.608;2022-12-20T02:50:16;1014.10;;;27.14;45.33
37170;BME280;23062;13.952;100.608;2022-12-20T02:54:41;1014.08;;;27.14;45.47
37170;BME280;23062;13.952;100.608;2022-12-20T02:59:14;1014.03;;;27.15;45.42
37170;BME280;23062;13.952;100.608;2022-12-20T03:03:42;1014.03;;;27.19;45.38
37170;BME280;23062;13.952;100.608;2022-12-20T03:08:08;1013.92;;;27.21;45.42
37170;BME280;23062;13.952;100.608;2022-12-20T03:12:35;1013.93;;;27.24;45.41
37170;BME280;23062;13.952;100.608;2022-12-20T03:17:00;1013.90;;;27.25;45.52
37170;BME280;23062;13.952;100.608;2022-12-20T03:21:26;1013.89;;;27.27;45.61
37170;BME280;23062;13.952;100.608;2022-12-20T03:25:51;1013.86;;;27.28;45.67
37170;BME280;23062;13.952;100.608;2022-12-20T03:30:17;1013.77;;;27.32;45.47
37170;BME280;23062;13.952;100.608;2022-12-20T03:34:43;1013.80;;;27.33;45.49
37170;BME280;23062;13.952;100.608;2022-12-20T03:39:09;1013.80;;;27.36;45.55
37170;BME280;23062;13.952;100.608;2022-12-20T03:43:38;1013.76;;;27.39;45.33
37170;BME280;23062;13.952;100.608;2022-12-20T03:48:03;1013.60;;;27.40;43.56
37170;BME280;23062;13.952;100.608;2022-12-20T03:52:29;1013.53;;;27.44;43.13
37170;BME280;23062;13.952;100.608;2022-12-20T03:56:54;1013.45;;;27.45;41.53
37170;BME280;23062;13.952;100.608;2022-12-20T04:01:25;1013.34;;;27.47;41.96
37170;BME280;23062;13.952;100.608;2022-12-20T04:05:50;1013.27;;;27.51;42.33
37170;BME280;23062;13.952;100.608;2022-12-20T04:10:16;1013.17;;;27.51;42.59
37170;BME280;23062;13.952;100.608;2022-12-20T04:14:41;1013.15;;;27.57;42.72
37170;BME280;23062;13.952;100.608;2022-12-20T04:19:07;1013.08;;;27.58;42.37
37170;BME280;23062;13.952;100.608;2022-12-20T04:23:36;1012.92;;;27.59;40.96
37170;BME280;23062;13.952;100.608;2022-12-20T04:28:01;1012.82;;;27.61;41.57
37170;BME280;23062;13.952;100.608;2022-12-20T04:32:26;1012.72;;;27.62;41.79
37170;BME280;23062;13.952;100.608;2022-12-20T04:36:53;1012.51;;;27.63;42.14
37170;BME280;23062;13.952;100.608;2022-12-20T04:41:26;1012.38;;;27.65;42.55
37170;BME280;23062;13.952;100.608;2022-12-20T04:45:53;1012.30;;;27.67;42.54
37170;BME280;23062;13.952;100.608;2022-12-20T04:50:22;1012.18;;;27.66;42.15
37170;BME280;23062;13.952;100.608;2022-12-20T04:54:47;1012.16;;;27.68;42.97
37170;BME280;23062;13.952;100.608;2022-12-20T04:59:12;1012.02;;;27.68;42.71
37170;BME280;23062;13.952;100.608;2022-12-20T05:03:38;1011.99;;;27.71;42.63
37170;BME280;23062;13.952;100.608;2022-12-20T05:08:04;1011.86;;;27.76;41.72
37170;BME280;23062;13.952;100.608;2022-12-20T05:12:33;1011.67;;;27.78;41.54
37170;BME280;23062;13.952;100.608;2022-12-20T05:16:59;1011.58;;;27.80;41.88
37170;BME280;23062;13.952;100.608;2022-12-20T05:21:24;1011.45;;;27.82;41.94
37170;BME280;23062;13.952;100.608;2022-12-20T05:26:09;1011.32;;;27.87;42.03
37170;BME280;23062;13.952;100.608;2022-12-20T05:30:43;1011.20;;;27.89;42.01
37170;BME280;23062;13.952;100.608;2022-12-20T05:35:09;1011.07;;;27.91;42.11
37170;BME280;23062;13.952;100.608;2022-12-20T05:39:34;1010.97;;;27.95;42.25
37170;BME280;23062;13.952;100.608;2022-12-20T05:44:02;1010.89;;;27.95;42.32
37170;BME280;23062;13.952;100.608;2022-12-20T05:48:28;1010.82;;;27.95;41.90
37170;BME280;23062;13.952;100.608;2022-12-20T05:52:53;1010.70;;;27.98;41.69
37170;BME280;23062;13.952;100.608;2022-12-20T05:57:19;1010.68;;;28.02;41.82
37170;BME280;23062;13.952;100.608;2022-12-20T06:01:45;1010.52;;;28.05;41.58
37170;BME280;23062;13.952;100.608;2022-12-20T06:06:11;1010.49;;;28.10;41.46
37170;BME280;23062;13.952;100.608;2022-12-20T06:10:39;1010.37;;;28.13;41.03
37170;BME280;23062;13.952;100.608;2022-12-20T06:15:06;1010.30;;;28.18;40.77
37170;BME280;23062;13.952;100.608;2022-12-20T06:19:34;1010.20;;;28.20;40.89
37170;BME280;23062;13.952;100.608;2022-12-20T06:24:00;1010.14;;;28.20;41.02
37170;BME280;23062;13.952;100.608;2022-12-20T06:28:25;1010.08;;;28.20;40.89
37170;BME280;23062;13.952;100.608;2022-12-20T06:32:51;1009.99;;;28.23;40.57
37170;BME280;23062;13.952;100.608;2022-12-20T06:37:16;1009.87;;;28.24;40.74
37170;BME280;23062;13.952;100.608;2022-12-20T06:41:42;1009.77;;;28.26;40.69
37170;BME280;23062;13.952;100.608;2022-12-20T06:46:08;1009.68;;;28.27;40.97
37170;BME280;23062;13.952;100.608;2022-12-20T06:50:36;1009.59;;;28.27;40.96
37170;BME280;23062;13.952;100.608;2022-12-20T06:55:01;1009.47;;;28.29;41.09
37170;BME280;23062;13.952;100.608;2022-12-20T06:59:26;1009.41;;;28.29;40.85
37170;BME280;23062;13.952;100.608;2022-12-20T07:03:52;1009.29;;;28.31;40.81
37170;BME280;23062;13.952;100.608;2022-12-20T07:08:20;1009.22;;;28.33;40.96
37170;BME280;23062;13.952;100.608;2022-12-20T07:12:47;1009.06;;;28.37;40.45
37170;BME280;23062;13.952;100.608;2022-12-20T07:17:14;1009.06;;;28.36;40.91
37170;BME280;23062;13.952;100.608;2022-12-20T07:21:40;1008.99;;;28.36;40.67
37170;BME280;23062;13.952;100.608;2022-12-20T07:26:05;1008.89;;;28.38;40.63
37170;BME280;23062;13.952;100.608;2022-12-20T07:30:31;1008.80;;;28.41;40.86
37170;BME280;23062;13.952;100.608;2022-12-20T07:34:56;1008.71;;;28.40;41.15
37170;BME280;23062;13.952;100.608;2022-12-20T07:39:22;1008.68;;;28.41;41.15
37170;BME280;23062;13.952;100.608;2022-12-20T07:43:48;1008.59;;;28.40;41.26
37170;BME280;23062;13.952;100.608;2022-12-20T07:48:14;1008.48;;;28.43;41.29
37170;BME280;23062;13.952;100.608;2022-12-20T07:52:41;1008.46;;;28.43;41.43
37170;BME280;23062;13.952;100.608;2022-12-20T07:57:16;1008.41;;;28.49;41.57
37170;BME280;23062;13.952;100.608;2022-12-20T08:01:40;1008.41;;;28.53;41.88
37170;BME280;23062;13.952;100.608;2022-12-20T08:06:08;1008.41;;;28.53;42.08
37170;BME280;23062;13.952;100.608;2022-12-20T08:10:35;1008.39;;;28.50;42.45
37170;BME280;23062;13.952;100.608;2022-12-20T08:15:01;1008.44;;;28.47;43.14
37170;BME280;23062;13.952;100.608;2022-12-20T08:19:26;1008.37;;;28.39;43.43
37170;BME280;23062;13.952;100.608;2022-12-20T08:23:52;1008.33;;;28.43;43.32
37170;BME280;23062;13.952;100.608;2022-12-20T08:28:17;1008.35;;;28.45;43.22
37170;BME280;23062;13.952;100.608;2022-12-20T08:32:43;1008.33;;;28.44;43.33
37170;BME280;23062;13.952;100.608;2022-12-20T08:37:10;1008.34;;;28.47;43.20
37170;BME280;23062;13.952;100.608;2022-12-20T08:41:35;1008.29;;;28.45;43.53
37170;BME280;23062;13.952;100.608;2022-12-20T08:46:03;1008.34;;;28.47;43.85
37170;BME280;23062;13.952;100.608;2022-12-20T08:50:31;1008.44;;;28.51;44.06
37170;BME280;23062;13.952;100.608;2022-12-20T08:54:57;1008.43;;;28.48;44.61
37170;BME280;23062;13.952;100.608;2022-12-20T08:59:25;1008.42;;;28.51;44.93
37170;BME280;23062;13.952;100.608;2022-12-20T09:03:50;1008.43;;;28.53;45.17
37170;BME280;23062;13.952;100.608;2022-12-20T09:08:15;1008.49;;;28.53;45.44
37170;BME280;23062;13.952;100.608;2022-12-20T09:12:41;1008.45;;;28.51;45.81
37170;BME280;23062;13.952;100.608;2022-12-20T09:17:07;1008.49;;;28.49;46.34
37170;BME280;23062;13.952;100.608;2022-12-20T09:21:33;1008.53;;;28.53;46.52
37170;BME280;23062;13.952;100.608;2022-12-20T09:26:07;1008.54;;;28.55;46.50
37170;BME280;23062;13.952;100.608;2022-12-20T09:30:33;1008.60;;;28.55;46.46
37170;BME280;23062;13.952;100.608;2022-12-20T09:35:02;1008.64;;;28.55;46.09
37170;BME280;23062;13.952;100.608;2022-12-20T09:39:26;1008.73;;;28.55;46.18
37170;BME280;23062;13.952;100.608;2022-12-20T09:43:52;1008.78;;;28.55;46.35
37170;BME280;23062;13.952;100.608;2022-12-20T09:48:40;1008.89;;;28.52;46.71
37170;BME280;23062;13.952;100.608;2022-12-20T09:53:33;1008.91;;;28.52;46.64
37170;BME280;23062;13.952;100.608;2022-12-20T10:02:40;1009.04;;;28.55;45.34
37170;BME280;23062;13.952;100.608;2022-12-20T10:07:11;1009.09;;;28.54;45.29
37170;BME280;23062;13.952;100.608;2022-12-20T10:11:36;1009.13;;;28.48;45.40
37170;BME280;23062;13.952;100.608;2022-12-20T10:16:12;1009.26;;;28.44;45.60
37170;BME280;23062;13.952;100.608;2022-12-20T10:25:24;1009.28;;;28.40;45.96
37170;BME280;23062;13.952;100.608;2022-12-20T10:29:50;1009.39;;;28.37;45.63
37170;BME280;23062;13.952;100.608;2022-12-20T10:34:18;1009.45;;;28.34;45.69
37170;BME280;23062;13.952;100.608;2022-12-20T10:38:48;1009.46;;;28.34;45.32
37170;BME280;23062;13.952;100.608;2022-12-20T10:43:18;1009.52;;;28.33;45.30
37170;BME280;23062;13.952;100.608;2022-12-20T10:47:45;1009.54;;;28.32;45.30
37170;BME280;23062;13.952;100.608;2022-12-20T10:52:13;1009.61;;;28.30;44.90
37170;BME280;23062;13.952;100.608;2022-12-20T10:56:39;1009.66;;;28.29;44.90
37170;BME280;23062;13.952;100.608;2022-12-20T11:01:17;1009.70;;;28.28;45.04
37170;BME280;23062;13.952;100.608;2022-12-20T11:05:57;1009.73;;;28.31;44.95
37170;BME280;23062;13.952;100.608;2022-12-20T11:10:29;1009.78;;;28.33;44.82
37170;BME280;23062;13.952;100.608;2022-12-20T11:15:06;1009.84;;;28.33;45.11
37170;BME280;23062;13.952;100.608;2022-12-20T11:19:41;1009.93;;;28.33;45.28
37170;BME280;23062;13.952;100.608;2022-12-20T11:24:14;1009.96;;;28.32;45.39
37170;BME280;23062;13.952;100.608;2022-12-20T11:33:10;1010.04;;;28.29;45.63
37170;BME280;23062;13.952;100.608;2022-12-20T11:37:40;1010.08;;;28.25;45.91
37170;BME280;23062;13.952;100.608;2022-12-20T11:51:47;1010.22;;;28.33;47.07
37170;BME280;23062;13.952;100.608;2022-12-20T12:05:21;1010.37;;;28.44;46.04
37170;BME280;23062;13.952;100.608;2022-12-20T12:09:54;1010.45;;;28.45;46.75
37170;BME280;23062;13.952;100.608;2022-12-20T12:19:01;1010.54;;;28.39;46.58
37170;BME280;23062;13.952;100.608;2022-12-20T12:23:48;1010.61;;;28.40;46.81
37170;BME280;23062;13.952;100.608;2022-12-20T12:28:15;1010.66;;;28.39;46.75
37170;BME280;23062;13.952;100.608;2022-12-20T12:32:54;1010.73;;;28.39;46.64
37170;BME280;23062;13.952;100.608;2022-12-20T12:42:32;1010.85;;;28.38;46.53
37170;BME280;23062;13.952;100.608;2022-12-20T12:46:58;1010.91;;;28.36;46.47
37170;BME280;23062;13.952;100.608;2022-12-20T12:51:35;1010.93;;;28.33;46.65
37170;BME280;23062;13.952;100.608;2022-12-20T12:55:58;1010.97;;;28.36;46.74
37170;BME280;23062;13.952;100.608;2022-12-20T13:00:51;1011.03;;;28.42;46.69
37170;BME280;23062;13.952;100.608;2022-12-20T13:05:33;1011.06;;;28.45;46.63
37170;BME280;23062;13.952;100.608;2022-12-20T13:09:51;1011.10;;;28.44;46.17
37170;BME280;23062;13.952;100.608;2022-12-20T13:19:01;1011.20;;;28.43;46.28
37170;BME280;23062;13.952;100.608;2022-12-20T13:23:25;1011.27;;;28.43;46.24
37170;BME280;23062;13.952;100.608;2022-12-20T13:27:51;1011.34;;;28.43;46.29
37170;BME280;23062;13.952;100.608;2022-12-20T13:51:22;1011.52;;;28.42;46.63
37170;BME280;23062;13.952;100.608;2022-12-20T13:55:47;1011.50;;;28.41;46.80
37170;BME280;23062;13.952;100.608;2022-12-20T14:00:23;1011.56;;;28.41;46.92
37170;BME280;23062;13.952;100.608;2022-12-20T14:04:56;1011.60;;;28.40;46.77
37170;BME280;23062;13.952;100.608;2022-12-20T14:09:34;1011.62;;;28.39;46.86
37170;BME280;23062;13.952;100.608;2022-12-20T14:14:10;1011.65;;;28.39;46.95
37170;BME280;23062;13.952;100.608;2022-12-20T14:18:30;1011.64;;;28.38;46.98
37170;BME280;23062;13.952;100.608;2022-12-20T14:23:06;1011.71;;;28.38;47.18
37170;BME280;23062;13.952;100.608;2022-12-20T14:27:33;1011.73;;;28.37;47.29
37170;BME280;23062;13.952;100.608;2022-12-20T14:32:01;1011.74;;;28.38;47.25
37170;BME280;23062;13.952;100.608;2022-12-20T14:36:28;1011.68;;;28.32;47.39
37170;BME280;23062;13.952;100.608;2022-12-20T14:40:56;1011.72;;;28.36;47.46
37170;BME280;23062;13.952;100.608;2022-12-20T14:45:23;1011.72;;;28.35;47.37
37170;BME280;23062;13.952;100.608;2022-12-20T14:49:52;1011.64;;;28.35;47.53
37170;BME280;23062;13.952;100.608;2022-12-20T14:54:20;1011.63;;;28.34;47.54
37170;BME280;23062;13.952;100.608;2022-12-20T14:58:46;1011.67;;;28.34;47.50
37170;BME280;23062;13.952;100.608;2022-12-20T15:03:20;1011.65;;;28.34;47.58
37170;BME280;23062;13.952;100.608;2022-12-20T15:07:41;1011.66;;;28.34;47.63
37170;BME280;23062;13.952;100.608;2022-12-20T15:12:10;1011.65;;;28.33;47.61
37170;BME280;23062;13.952;100.608;2022-12-20T15:16:35;1011.62;;;28.33;47.85
37170;BME280;23062;13.952;100.608;2022-12-20T15:21:31;1011.65;;;28.31;47.62
37170;BME280;23062;13.952;100.608;2022-12-20T15:26:07;1011.67;;;28.33;47.46
37170;BME280;23062;13.952;100.608;2022-12-20T15:30:34;1011.59;;;28.32;47.58
37170;BME280;23062;13.952;100.608;2022-12-20T15:35:03;1011.54;;;28.31;47.66
37170;BME280;23062;13.952;100.608;2022-12-20T15:39:29;1011.56;;;28.30;47.76
37170;BME280;23062;13.952;100.608;2022-12-20T15:44:05;1011.57;;;28.30;47.75
37170;BME280;23062;13.952;100.608;2022-12-20T15:48:31;1011.56;;;28.30;47.72
37170;BME280;23062;13.952;100.608;2022-12-20T15:52:57;1011.50;;;28.28;47.79
37170;BME280;23062;13.952;100.608;2022-12-20T15:57:24;1011.51;;;28.28;47.75
37170;BME280;23062;13.952;100.608;2022-12-20T16:01:49;1011.51;;;28.28;47.74
37170;BME280;23062;13.952;100.608;2022-12-20T16:06:15;1011.46;;;28.28;47.69
37170;BME280;23062;13.952;100.608;2022-12-20T16:10:41;1011.43;;;28.28;47.65
37170;BME280;23062;13.952;100.608;2022-12-20T16:15:13;1011.43;;;28.27;47.52
37170;BME280;23062;13.952;100.608;2022-12-20T16:19:35;1011.37;;;28.26;47.64
37170;BME280;23062;13.952;100.608;2022-12-20T16:24:04;1011.38;;;28.26;47.73
37170;BME280;23062;13.952;100.608;2022-12-20T16:28:30;1011.35;;;28.26;47.60
37170;BME280;23062;13.952;100.608;2022-12-20T16:32:56;1011.32;;;28.25;47.67
37170;BME280;23062;13.952;100.608;2022-12-20T16:37:22;1011.28;;;28.25;47.98
37170;BME280;23062;13.952;100.608;2022-12-20T16:41:47;1011.30;;;28.24;47.88
37170;BME280;23062;13.952;100.608;2022-12-20T16:46:18;1011.31;;;28.24;47.55
37170;BME280;23062;13.952;100.608;2022-12-20T16:50:43;1011.30;;;28.24;47.59
37170;BME280;23062;13.952;100.608;2022-12-20T16:55:22;1011.29;;;28.23;47.61
37170;BME280;23062;13.952;100.608;2022-12-20T16:59:43;1011.29;;;28.22;47.41
37170;BME280;23062;13.952;100.608;2022-12-20T17:04:16;1011.29;;;28.22;47.53
37170;BME280;23062;13.952;100.608;2022-12-20T17:08:43;1011.28;;;28.22;47.34
37170;BME280;23062;13.952;100.608;2022-12-20T17:13:11;1011.29;;;28.21;47.40
37170;BME280;23062;13.952;100.608;2022-12-20T17:17:38;1011.27;;;28.20;47.32
37170;BME280;23062;13.952;100.608;2022-12-20T17:22:04;1011.22;;;28.19;47.50
37170;BME280;23062;13.952;100.608;2022-12-20T17:26:30;1011.20;;;28.18;47.27
37170;BME280;23062;13.952;100.608;2022-12-20T17:30:56;1011.18;;;28.18;47.31
37170;BME280;23062;13.952;100.608;2022-12-20T17:35:29;1011.10;;;28.17;47.36
37170;BME280;23062;13.952;100.608;2022-12-20T17:39:55;1011.16;;;28.16;47.24
37170;BME280;23062;13.952;100.608;2022-12-20T17:44:23;1011.12;;;28.15;47.24
37170;BME280;23062;13.952;100.608;2022-12-20T17:48:51;1011.07;;;28.14;47.22
37170;BME280;23062;13.952;100.608;2022-12-20T17:53:16;1011.05;;;28.14;47.24
37170;BME280;23062;13.952;100.608;2022-12-20T17:57:42;1010.96;;;28.13;47.15
37170;BME280;23062;13.952;100.608;2022-12-20T18:02:19;1010.95;;;28.12;47.18
37170;BME280;23062;13.952;100.608;2022-12-20T18:06:45;1010.92;;;28.13;47.13
37170;BME280;23062;13.952;100.608;2022-12-20T18:11:12;1010.83;;;28.11;47.22
37170;BME280;23062;13.952;100.608;2022-12-20T18:15:38;1010.81;;;28.10;47.20
37170;BME280;23062;13.952;100.608;2022-12-20T18:20:04;1010.80;;;28.10;47.18
37170;BME280;23062;13.952;100.608;2022-12-20T18:24:30;1010.79;;;28.09;47.16
37170;BME280;23062;13.952;100.608;2022-12-20T18:29:02;1010.78;;;28.09;47.24
37170;BME280;23062;13.952;100.608;2022-12-20T18:33:27;1010.74;;;28.09;47.33
37170;BME280;23062;13.952;100.608;2022-12-20T18:37:53;1010.72;;;28.08;47.22
37170;BME280;23062;13.952;100.608;2022-12-20T18:42:19;1010.67;;;28.07;47.42
37170;BME280;23062;13.952;100.608;2022-12-20T18:46:45;1010.63;;;28.06;47.39
37170;BME280;23062;13.952;100.608;2022-12-20T18:51:12;1010.61;;;28.04;47.39
37170;BME280;23062;13.952;100.608;2022-12-20T18:55:40;1010.52;;;28.05;47.36
37170;BME280;23062;13.952;100.608;2022-12-20T19:00:06;1010.49;;;28.04;47.35
37170;BME280;23062;13.952;100.608;2022-12-20T19:04:31;1010.46;;;28.04;47.37
37170;BME280;23062;13.952;100.608;2022-12-20T19:09:03;1010.41;;;28.03;47.29
37170;BME280;23062;13.952;100.608;2022-12-20T19:13:29;1010.35;;;28.01;47.30
37170;BME280;23062;13.952;100.608;2022-12-20T19:17:54;1010.30;;;28.02;47.27
37170;BME280;23062;13.952;100.608;2022-12-20T19:22:20;1010.25;;;28.00;47.14
37170;BME280;23062;13.952;100.608;2022-12-20T19:26:45;1010.18;;;28.00;47.25
37170;BME280;23062;13.952;100.608;2022-12-20T19:31:13;1010.14;;;27.99;47.20
37170;BME280;23062;13.952;100.608;2022-12-20T19:35:39;1010.09;;;27.98;47.22
37170;BME280;23062;13.952;100.608;2022-12-20T19:40:05;1010.01;;;27.97;47.28
37170;BME280;23062;13.952;100.608;2022-12-20T19:44:31;1009.92;;;27.96;47.33
37170;BME280;23062;13.952;100.608;2022-12-20T19:48:57;1009.87;;;27.96;47.34
37170;BME280;23062;13.952;100.608;2022-12-20T19:53:26;1009.86;;;27.96;47.27
37170;BME280;23062;13.952;100.608;2022-12-20T19:57:52;1009.90;;;27.96;47.30
37170;BME280;23062;13.952;100.608;2022-12-20T20:02:17;1009.92;;;27.96;47.27
37170;BME280;23062;13.952;100.608;2022-12-20T20:06:42;1009.85;;;27.95;47.31
37170;BME280;23062;13.952;100.608;2022-12-20T20:11:10;1009.86;;;27.96;47.35
37170;BME280;23062;13.952;100.608;2022-12-20T20:15:48;1009.86;;;27.95;47.42
37170;BME280;23062;13.952;100.608;2022-12-20T20:20:10;1009.90;;;27.96;47.38
37170;BME280;23062;13.952;100.608;2022-12-20T20:24:36;1009.85;;;27.95;47.39
37170;BME280;23062;13.952;100.608;2022-12-20T20:29:02;1009.84;;;27.94;47.39
37170;BME280;23062;13.952;100.608;2022-12-20T20:33:29;1009.84;;;27.95;47.47
37170;BME280;23062;13.952;100.608;2022-12-20T20:37:55;1009.87;;;27.94;47.45
37170;BME280;23062;13.952;100.608;2022-12-20T20:42:23;1009.88;;;27.93;47.58
37170;BME280;23062;13.952;100.608;2022-12-20T20:46:48;1009.88;;;27.78;47.67
37170;BME280;23062;13.952;100.608;2022-12-20T20:51:15;1009.89;;;27.60;47.87
37170;BME280;23062;13.952;100.608;2022-12-20T20:55:41;1009.96;;;27.50;48.24
37170;BME280;23062;13.952;100.608;2022-12-20T21:00:07;1009.92;;;27.43;48.61
37170;BME280;23062;13.952;100.608;2022-12-20T21:04:33;1009.96;;;27.35;48.58
37170;BME280;23062;13.952;100.608;2022-12-20T21:09:02;1010.03;;;27.22;48.86
37170;BME280;23062;13.952;100.608;2022-12-20T21:13:28;1010.05;;;27.10;49.32
37170;BME280;23062;13.952;100.608;2022-12-20T21:17:53;1010.07;;;26.99;49.54
37170;BME280;23062;13.952;100.608;2022-12-20T21:22:19;1010.09;;;26.89;49.63
37170;BME280;23062;13.952;100.608;2022-12-20T21:26:47;1010.02;;;26.87;50.06
37170;BME280;23062;13.952;100.608;2022-12-20T21:31:16;1010.06;;;26.81;50.33
37170;BME280;23062;13.952;100.608;2022-12-20T21:35:42;1010.10;;;26.80;50.55
37170;BME280;23062;13.952;100.608;2022-12-20T21:40:08;1010.16;;;26.71;50.95
37170;BME280;23062;13.952;100.608;2022-12-20T21:44:35;1010.15;;;26.63;51.41
37170;BME280;23062;13.952;100.608;2022-12-20T21:49:00;1010.20;;;26.64;51.27
37170;BME280;23062;13.952;100.608;2022-12-20T21:53:26;1010.19;;;26.59;51.39
37170;BME280;23062;13.952;100.608;2022-12-20T21:57:51;1010.21;;;26.57;53.86
37170;BME280;23062;13.952;100.608;2022-12-20T22:02:17;1010.24;;;26.52;54.81
37170;BME280;23062;13.952;100.608;2022-12-20T22:06:43;1010.25;;;26.49;55.11
37170;BME280;23062;13.952;100.608;2022-12-20T22:11:10;1010.27;;;26.33;56.45
37170;BME280;23062;13.952;100.608;2022-12-20T22:15:38;1010.32;;;26.30;55.96
37170;BME280;23062;13.952;100.608;2022-12-20T22:20:03;1010.48;;;25.90;56.42
37170;BME280;23062;13.952;100.608;2022-12-20T22:24:28;1010.48;;;25.81;57.13
37170;BME280;23062;13.952;100.608;2022-12-20T22:29:00;1010.51;;;25.66;57.85
37170;BME280;23062;13.952;100.608;2022-12-20T22:33:22;1010.54;;;25.70;57.35
37170;BME280;23062;13.952;100.608;2022-12-20T22:37:48;1010.59;;;25.63;56.59
37170;BME280;23062;13.952;100.608;2022-12-20T22:42:14;1010.59;;;25.55;57.27
37170;BME280;23062;13.952;100.608;2022-12-20T22:46:40;1010.66;;;25.58;56.93
37170;BME280;23062;13.952;100.608;2022-12-20T22:51:14;1010.72;;;25.67;57.34
37170;BME280;23062;13.952;100.608;2022-12-20T22:55:36;1010.78;;;25.93;56.87
37170;BME280;23062;13.952;100.608;2022-12-20T23:00:02;1010.87;;;26.08;56.44
37170;BME280;23062;13.952;100.608;2022-12-20T23:04:27;1010.91;;;26.03;56.18
37170;BME280;23062;13.952;100.608;2022-12-20T23:08:56;1011.01;;;26.02;56.67
37170;BME280;23062;13.952;100.608;2022-12-20T23:13:21;1011.06;;;25.97;56.80
37170;BME280;23062;13.952;100.608;2022-12-20T23:18:07;1011.06;;;26.00;56.46
37170;BME280;23062;13.952;100.608;2022-12-20T23:22:35;1011.16;;;25.96;56.54
37170;BME280;23062;13.952;100.608;2022-12-20T23:27:03;1011.25;;;25.93;56.53
37170;BME280;23062;13.952;100.608;2022-12-20T23:31:30;1011.30;;;25.93;56.66
37170;BME280;23062;13.952;100.608;2022-12-20T23:36:00;1011.35;;;25.92;56.61
37170;BME280;23062;13.952;100.608;2022-12-20T23:40:27;1011.41;;;25.96;56.12
37170;BME280;23062;13.952;100.608;2022-12-20T23:44:53;1011.47;;;25.98;56.21
37170;BME280;23062;13.952;100.608;2022-12-20T23:49:18;1011.42;;;26.07;56.01
37170;BME280;23062;13.952;100.608;2022-12-20T23:53:43;1011.45;;;26.08;55.90
37170;BME280;23062;13.952;100.608;2022-12-20T23:58:09;1011.53;;;26.07;55.88
